Time;durP1;ratioP1;P1;durP2;ratioP2;P2;SDS_P1;SDS_P2;PMS_P1;PMS_P2;Temp;Humidity;BMP_temperature;BMP_pressure;BME280_temperature;BME280_humidity;BME280_pressure;Samples;Min_cycle;Max_cycle;Signal;HPM_P1;HPM_P2
2023/07/26 00:02:17;;;;;;;10.38;7.47;;;;;;;27.82;68.44;98691.41;5079607;28;20067;-63
2023/07/26 00:04:44;;;;;;;14.38;8.23;;;;;;;27.80;68.18;98690.88;5080562;28;20044;-63
2023/07/26 00:07:10;;;;;;;14.85;8.80;;;;;;;27.90;67.80;98687.97;5079887;28;20043;-62
2023/07/26 00:09:35;;;;;;;9.98;7.72;;;;;;;27.90;67.28;98681.72;5079635;28;20033;-63
2023/07/26 00:12:00;;;;;;;15.10;8.68;;;;;;;27.91;67.30;98672.47;5079489;28;20036;-63
2023/07/26 00:14:26;;;;;;;9.93;7.40;;;;;;;27.96;66.83;98672.38;5079496;28;20064;-63
2023/07/26 00:16:51;;;;;;;10.55;7.32;;;;;;;27.67;67.98;98665.28;5080015;28;20403;-63
2023/07/26 00:19:19;;;;;;;10.10;7.63;;;;;;;27.38;69.35;98667.41;5079568;28;20046;-62
2023/07/26 00:21:47;;;;;;;10.20;7.65;;;;;;;27.26;70.10;98667.06;5080025;28;20082;-63
2023/07/26 00:24:13;;;;;;;13.80;7.45;;;;;;;27.45;69.15;98662.41;5079874;28;20029;-63
2023/07/26 00:26:38;;;;;;;11.02;7.95;;;;;;;27.32;68.50;98665.88;5079301;28;20054;-63
2023/07/26 00:29:04;;;;;;;10.30;7.47;;;;;;;27.25;68.71;98655.41;5079719;28;20052;-62
2023/07/26 00:31:29;;;;;;;13.25;7.45;;;;;;;27.21;69.36;98653.56;5079329;28;20032;-63
2023/07/26 00:33:55;;;;;;;11.57;7.40;;;;;;;27.01;69.41;98652.78;5079563;28;20048;-63
2023/07/26 00:36:20;;;;;;;11.48;7.85;;;;;;;27.00;69.85;98644.91;5079315;28;20040;-63
2023/07/26 00:38:46;;;;;;;10.15;6.85;;;;;;;26.97;70.27;98640.03;5075545;28;21329;-63
2023/07/26 00:41:12;;;;;;;13.82;8.60;;;;;;;27.00;70.21;98648.44;5075172;28;20056;-63
2023/07/26 00:43:37;;;;;;;12.25;8.30;;;;;;;26.86;70.80;98650.25;5077137;28;20032;-62
2023/07/26 00:46:05;;;;;;;13.05;8.60;;;;;;;27.06;70.18;98649.19;5076134;28;20264;-63
2023/07/26 00:48:31;;;;;;;13.45;7.90;;;;;;;27.21;69.35;98643.50;5078242;28;20034;-62
2023/07/26 00:50:58;;;;;;;11.15;7.95;;;;;;;27.30;69.16;98651.78;5078051;28;20059;-63
2023/07/26 00:53:24;;;;;;;11.38;8.35;;;;;;;27.40;68.55;98635.31;5078423;28;20148;-63
2023/07/26 00:55:49;;;;;;;10.43;7.50;;;;;;;27.46;68.39;98630.56;5079497;28;20051;-63
2023/07/26 00:58:15;;;;;;;10.30;7.97;;;;;;;27.45;68.74;98631.69;5078452;28;20261;-62
2023/07/26 01:00:43;;;;;;;10.43;8.35;;;;;;;27.41;69.28;98630.66;5079143;28;20032;-62
2023/07/26 01:03:09;;;;;;;14.73;8.13;;;;;;;27.39;69.47;98628.25;5078782;28;20380;-62
2023/07/26 01:05:45;;;;;;;12.35;8.43;;;;;;;27.25;70.27;98611.09;5078411;28;20028;-63
2023/07/26 01:08:32;;;;;;;12.27;8.05;;;;;;;27.26;70.60;98632.56;5079028;28;20269;-63
2023/07/26 01:11:10;;;;;;;14.60;8.05;;;;;;;27.31;70.35;98626.22;5078828;28;20044;-62
2023/07/26 01:13:59;;;;;;;11.90;8.38;;;;;;;27.37;69.70;98635.91;5078459;28;20044;-62
2023/07/26 01:16:25;;;;;;;12.90;8.00;;;;;;;27.47;70.04;98632.19;5047392;28;20044;-63
2023/07/26 01:18:50;;;;;;;10.68;8.35;;;;;;;27.51;69.92;98638.63;5078948;28;20047;-63
2023/07/26 01:21:16;;;;;;;11.00;8.32;;;;;;;27.55;69.99;98629.59;5078251;28;20044;-63
2023/07/26 01:23:41;;;;;;;16.30;7.95;;;;;;;27.58;67.97;98628.97;5078614;28;20044;-62
2023/07/26 01:26:07;;;;;;;12.52;7.72;;;;;;;27.53;68.67;98620.13;5078374;28;20049;-63
2023/07/26 01:28:32;;;;;;;9.35;8.18;;;;;;;27.60;68.36;98625.97;5078646;28;20036;-63
2023/07/26 01:31:04;;;;;;;11.80;8.00;;;;;;;27.69;68.83;98637.78;5078689;28;20329;-62
2023/07/26 01:33:32;;;;;;;12.13;7.53;;;;;;;27.64;67.62;98624.28;5078332;28;20052;-63
2023/07/26 01:35:59;;;;;;;11.43;7.93;;;;;;;27.76;67.78;98637.38;5078052;28;20033;-63
2023/07/26 01:38:25;;;;;;;10.43;7.82;;;;;;;27.70;67.90;98638.59;5078507;28;20035;-63
2023/07/26 01:40:51;;;;;;;9.85;8.45;;;;;;;27.67;68.63;98642.72;5078530;28;20107;-63
2023/07/26 01:43:17;;;;;;;12.32;8.55;;;;;;;27.65;68.46;98642.22;5078228;28;20043;-62
2023/07/26 01:45:43;;;;;;;14.75;8.77;;;;;;;27.69;68.03;98647.88;5078560;28;20044;-63
2023/07/26 01:48:08;;;;;;;12.98;8.70;;;;;;;27.64;68.47;98646.03;5077709;28;20285;-62
2023/07/26 01:50:33;;;;;;;13.25;8.68;;;;;;;27.66;67.47;98641.13;5078065;28;20327;-63
2023/07/26 01:52:59;;;;;;;10.05;8.05;;;;;;;27.62;67.87;98651.78;5078214;28;20047;-62
2023/07/26 01:55:25;;;;;;;14.85;8.65;;;;;;;27.64;68.47;98646.84;5078356;28;20056;-63
2023/07/26 01:57:50;;;;;;;13.75;8.27;;;;;;;27.63;68.80;98639.78;5077399;28;20081;-62
2023/07/26 02:00:16;;;;;;;12.55;8.52;;;;;;;27.61;67.38;98641.22;5077807;28;20353;-63
2023/07/26 02:02:41;;;;;;;11.50;8.50;;;;;;;27.54;68.09;98641.56;5077596;28;20094;-62
2023/07/26 02:05:07;;;;;;;11.10;8.80;;;;;;;27.41;69.09;98634.19;5077837;28;20059;-62
2023/07/26 02:07:32;;;;;;;13.02;9.15;;;;;;;27.41;68.96;98633.38;5076698;28;20318;-63
2023/07/26 02:09:58;;;;;;;11.07;8.27;;;;;;;27.30;68.70;98625.41;5068035;28;20369;-63
2023/07/26 02:12:23;;;;;;;10.68;8.82;;;;;;;27.21;68.17;98634.53;5075215;28;20053;-63
2023/07/26 02:14:49;;;;;;;12.65;8.80;;;;;;;27.19;69.08;98634.84;5077024;28;20233;-63
2023/07/26 02:17:14;;;;;;;12.02;9.52;;;;;;;27.21;70.58;98642.69;5072221;28;20058;-63
2023/07/26 02:19:40;;;;;;;14.13;9.98;;;;;;;27.06;70.50;98654.63;5072061;28;20341;-63
2023/07/26 02:22:05;;;;;;;10.75;8.77;;;;;;;27.12;70.84;98649.91;5072358;28;20195;-63
2023/07/26 02:24:31;;;;;;;12.63;9.88;;;;;;;27.09;70.94;98637.72;5072067;28;20036;-63
2023/07/26 02:26:56;;;;;;;13.35;9.13;;;;;;;27.15;71.11;98643.88;5072126;28;20086;-63
2023/07/26 02:29:21;;;;;;;11.73;9.32;;;;;;;27.16;70.76;98645.50;5070403;28;20342;-62
2023/07/26 02:31:47;;;;;;;14.18;9.40;;;;;;;27.11;71.40;98643.69;5073436;28;20043;-62
2023/07/26 02:34:12;;;;;;;12.88;10.05;;;;;;;27.08;71.50;98646.19;5076369;28;20361;-63
2023/07/26 02:36:38;;;;;;;18.58;9.30;;;;;;;27.02;71.16;98646.22;5070917;28;20045;-63
2023/07/26 02:39:04;;;;;;;15.45;10.05;;;;;;;26.97;71.21;98643.59;5060245;28;20032;-63
2023/07/26 02:41:29;;;;;;;12.88;9.75;;;;;;;26.94;71.38;98649.59;5061837;28;20047;-62
2023/07/26 02:43:54;;;;;;;14.73;10.10;;;;;;;27.01;71.30;98649.25;5075422;28;20047;-63
2023/07/26 02:46:20;;;;;;;12.30;9.32;;;;;;;27.07;71.22;98653.53;5076860;28;20055;-62
2023/07/26 02:48:45;;;;;;;19.52;9.25;;;;;;;27.10;70.39;98654.84;5078557;28;20078;-62
2023/07/26 02:51:11;;;;;;;19.98;10.15;;;;;;;27.02;70.77;98662.53;5079405;28;20097;-63
2023/07/26 02:53:36;;;;;;;22.13;11.18;;;;;;;26.96;70.86;98665.59;5076186;28;20097;-63
2023/07/26 02:56:01;;;;;;;15.48;10.80;;;;;;;26.91;71.47;98658.31;5075661;28;20214;-63
2023/07/26 02:58:27;;;;;;;16.35;10.48;;;;;;;26.82;71.25;98649.22;5075602;28;20338;-62
2023/07/26 03:00:53;;;;;;;16.10;10.68;;;;;;;26.79;71.62;98659.88;5074439;28;20119;-63
2023/07/26 03:03:19;;;;;;;16.35;9.98;;;;;;;26.72;71.82;98654.81;5075757;28;20226;-63
2023/07/26 03:05:44;;;;;;;13.50;10.02;;;;;;;26.77;72.03;98643.06;5076348;28;20032;-62
2023/07/26 03:08:10;;;;;;;14.40;10.45;;;;;;;26.78;71.58;98640.06;5075597;28;20058;-62
2023/07/26 03:10:35;;;;;;;14.43;10.10;;;;;;;26.73;71.94;98640.13;5077248;28;20044;-62
2023/07/26 03:13:00;;;;;;;16.67;10.70;;;;;;;26.72;71.99;98641.25;5074664;28;20029;-62
2023/07/26 03:15:26;;;;;;;21.52;13.00;;;;;;;26.66;72.07;98636.97;5073001;28;20041;-62
2023/07/26 03:17:51;;;;;;;15.02;9.95;;;;;;;26.63;72.27;98643.00;5074333;28;20039;-62
2023/07/26 03:20:17;;;;;;;16.25;10.73;;;;;;;26.56;72.09;98643.38;5075433;28;20028;-62
2023/07/26 03:22:42;;;;;;;13.73;9.93;;;;;;;26.53;72.69;98635.81;5074840;28;20028;-63
2023/07/26 03:25:08;;;;;;;17.45;10.38;;;;;;;26.62;72.47;98633.25;5075006;28;20036;-63
2023/07/26 03:27:33;;;;;;;16.65;10.98;;;;;;;26.74;71.91;98639.03;5074335;28;20059;-63
2023/07/26 03:29:59;;;;;;;20.80;10.45;;;;;;;26.85;71.37;98645.13;5077697;28;20037;-63
2023/07/26 03:32:25;;;;;;;15.00;10.23;;;;;;;26.90;71.22;98629.56;5078745;28;20229;-62
2023/07/26 03:34:50;;;;;;;14.98;10.65;;;;;;;26.95;70.54;98640.34;5074936;28;20415;-62
2023/07/26 03:37:16;;;;;;;13.35;10.20;;;;;;;26.99;70.35;98641.38;5075255;28;20036;-63
2023/07/26 03:39:41;;;;;;;13.10;11.10;;;;;;;27.06;70.55;98645.66;5073870;28;20032;-62
2023/07/26 03:42:07;;;;;;;16.00;10.82;;;;;;;27.13;70.30;98638.75;5058772;28;20037;-63
2023/07/26 03:44:33;;;;;;;15.00;10.43;;;;;;;27.18;69.73;98638.66;5057301;28;20040;-63
2023/07/26 03:46:58;;;;;;;15.63;11.15;;;;;;;27.14;69.99;98634.94;5070053;28;20352;-63
2023/07/26 03:49:23;;;;;;;12.85;10.75;;;;;;;27.20;69.83;98644.63;5074961;28;20102;-62
2023/07/26 03:51:49;;;;;;;18.98;11.38;;;;;;;27.20;69.43;98638.38;5075465;28;20030;-62
2023/07/26 03:54:14;;;;;;;14.18;11.15;;;;;;;27.12;69.56;98633.63;5078889;28;20072;-63
2023/07/26 03:56:40;;;;;;;14.38;11.52;;;;;;;26.80;70.87;98629.72;5075378;28;20048;-63
2023/07/26 03:59:05;;;;;;;24.30;12.23;;;;;;;26.57;71.95;98627.88;5057576;28;20043;-62
2023/07/26 04:01:31;;;;;;;15.50;12.10;;;;;;;26.49;72.72;98631.25;5066452;28;20446;-62
2023/07/26 04:03:56;;;;;;;18.77;11.73;;;;;;;26.38;74.40;98625.16;5075088;28;20032;-63
2023/07/26 04:06:21;;;;;;;14.65;10.85;;;;;;;26.25;74.47;98620.44;5079093;28;20203;-63
2023/07/26 04:08:47;;;;;;;21.08;12.07;;;;;;;25.89;76.00;98622.75;5075048;28;20241;-63
2023/07/26 04:11:12;;;;;;;15.43;11.60;;;;;;;25.70;77.80;98626.22;5061682;28;20047;-62
2023/07/26 04:13:38;;;;;;;16.38;11.77;;;;;;;25.57;78.85;98623.34;5057902;28;20243;-63
2023/07/26 04:16:32;;;;;;;17.90;12.32;;;;;;;25.49;79.05;98635.63;5064280;28;20044;-62
2023/07/26 04:18:58;;;;;;;25.60;13.02;;;;;;;25.59;78.73;98640.13;5040010;28;20071;-62
2023/07/26 04:21:23;;;;;;;16.48;11.95;;;;;;;25.73;78.74;98631.06;5060409;28;20074;-62
2023/07/26 04:23:48;;;;;;;16.20;12.00;;;;;;;25.61;79.40;98619.78;5074187;28;20080;-62
2023/07/26 04:26:14;;;;;;;18.40;11.35;;;;;;;25.37;80.81;98619.75;5067502;28;20200;-62
2023/07/26 04:28:39;;;;;;;16.55;11.50;;;;;;;25.21;83.13;98618.25;5058068;28;20036;-62
2023/07/26 04:31:05;;;;;;;17.50;12.20;;;;;;;25.48;82.41;98611.50;5057567;28;20040;-62
2023/07/26 04:33:31;;;;;;;29.38;12.02;;;;;;;25.51;81.89;98606.31;5064304;28;20040;-63
2023/07/26 04:35:57;;;;;;;19.95;12.73;;;;;;;25.48;80.85;98606.91;5077091;28;20519;-63
2023/07/26 04:38:25;;;;;;;19.38;12.48;;;;;;;25.34;81.98;98601.34;5076700;28;20066;-62
2023/07/26 04:40:51;;;;;;;21.67;13.13;;;;;;;25.51;80.52;98595.47;5063890;28;20041;-62
2023/07/26 04:43:19;;;;;;;17.00;10.73;;;;;;;25.47;78.88;98586.31;5058050;28;20058;-62
2023/07/26 04:45:46;;;;;;;14.85;10.90;;;;;;;25.45;78.78;98596.63;5063641;28;20029;-63
2023/07/26 04:48:11;;;;;;;17.52;10.52;;;;;;;25.83;77.86;98589.47;5073526;28;20039;-62
2023/07/26 04:50:37;;;;;;;14.90;10.52;;;;;;;26.02;75.86;98584.09;5074104;28;20040;-63
2023/07/26 04:53:02;;;;;;;13.73;9.95;;;;;;;25.93;74.76;98586.63;5065978;28;20040;-62
2023/07/26 04:55:27;;;;;;;16.88;10.43;;;;;;;25.95;73.29;98583.63;5061878;28;20108;-62
2023/07/26 04:57:53;;;;;;;16.05;10.25;;;;;;;25.88;73.61;98588.59;5056387;28;20110;-62
2023/07/26 05:00:18;;;;;;;18.02;10.45;;;;;;;26.00;73.42;98589.78;5064216;28;20545;-62
2023/07/26 05:02:44;;;;;;;15.05;9.27;;;;;;;26.14;73.43;98591.81;5057466;28;20029;-63
2023/07/26 05:05:09;;;;;;;14.18;9.95;;;;;;;25.99;72.93;98590.88;5057358;28;20086;-62
2023/07/26 05:07:35;;;;;;;19.85;9.88;;;;;;;26.01;73.09;98591.44;5072020;28;20036;-62
2023/07/26 05:10:00;;;;;;;14.73;10.05;;;;;;;26.20;71.81;98602.31;5063796;28;20084;-63
2023/07/26 05:12:25;;;;;;;13.15;10.05;;;;;;;26.58;70.10;98605.06;5056695;28;20035;-62
2023/07/26 05:14:51;;;;;;;10.77;9.52;;;;;;;26.90;68.91;98605.09;5063203;28;20062;-63
2023/07/26 05:17:16;;;;;;;14.90;9.40;;;;;;;27.11;67.16;98600.19;5074821;28;20245;-62
2023/07/26 05:19:42;;;;;;;13.30;9.10;;;;;;;27.16;65.90;98613.69;5057032;28;20324;-63
2023/07/26 05:22:07;;;;;;;11.80;8.20;;;;;;;27.44;64.95;98630.88;5058084;28;20103;-63
2023/07/26 05:24:33;;;;;;;14.10;8.70;;;;;;;27.50;64.69;98640.56;5056797;28;20037;-62
2023/07/26 05:26:59;;;;;;;14.48;9.38;;;;;;;27.79;65.63;98634.88;5057988;28;20045;-63
2023/07/26 05:29:25;;;;;;;15.30;8.70;;;;;;;28.05;64.19;98637.91;5073522;28;20043;-62
2023/07/26 05:31:50;;;;;;;13.20;8.93;;;;;;;28.34;61.53;98640.34;5073695;28;20028;-62
2023/07/26 05:34:16;;;;;;;15.23;9.93;;;;;;;28.43;60.81;98638.50;5073691;28;20322;-62
2023/07/26 05:36:41;;;;;;;13.93;8.93;;;;;;;28.70;59.81;98648.53;5056919;28;20265;-63
2023/07/26 05:39:07;;;;;;;9.88;8.07;;;;;;;28.98;58.40;98643.81;5061429;28;20024;-63
2023/07/26 05:41:32;;;;;;;13.40;8.90;;;;;;;29.27;57.11;98637.16;5056709;28;20045;-63
2023/07/26 05:44:01;;;;;;;12.75;9.25;;;;;;;29.41;56.33;98643.31;5056439;28;20051;-63
2023/07/26 05:46:26;;;;;;;13.85;8.77;;;;;;;29.70;54.94;98649.13;5058117;28;20029;-62
2023/07/26 05:48:52;;;;;;;12.90;8.50;;;;;;;29.94;54.17;98645.19;5057322;28;20183;-63
2023/07/26 05:51:17;;;;;;;13.15;8.55;;;;;;;30.23;54.78;98661.09;5064923;28;20071;-63
2023/07/26 05:53:43;;;;;;;14.07;8.30;;;;;;;30.39;51.79;98651.31;5073337;28;20036;-63
2023/07/26 05:56:08;;;;;;;14.93;8.95;;;;;;;30.37;51.61;98659.84;5071760;28;20081;-63
2023/07/26 05:58:34;;;;;;;11.65;7.53;;;;;;;30.49;52.24;98662.75;5057774;28;20053;-62
2023/07/26 06:00:59;;;;;;;12.13;8.63;;;;;;;30.56;50.80;98658.75;5058653;28;20926;-63
2023/07/26 06:03:25;;;;;;;14.90;8.93;;;;;;;30.43;50.80;98652.28;5056951;28;20029;-63
2023/07/26 06:05:50;;;;;;;12.55;8.73;;;;;;;30.58;50.37;98648.28;5060181;28;20052;-63
2023/07/26 06:08:16;;;;;;;11.73;8.23;;;;;;;30.87;50.67;98631.28;5061953;28;20039;-63
2023/07/26 06:10:41;;;;;;;12.93;8.38;;;;;;;30.96;49.57;98626.63;5064418;28;20044;-63
2023/07/26 06:13:12;;;;;;;12.20;8.30;;;;;;;30.79;49.73;98622.78;5062910;28;20056;-63
2023/07/26 06:15:38;;;;;;;12.90;8.38;;;;;;;31.21;48.50;98608.59;5063122;28;20059;-63
2023/07/26 06:18:04;;;;;;;14.85;8.38;;;;;;;31.33;48.69;98609.56;5061792;28;20203;-62
2023/07/26 06:20:29;;;;;;;10.30;8.30;;;;;;;31.02;50.26;98598.00;5059113;28;20037;-63
2023/07/26 06:22:55;;;;;;;12.57;9.15;;;;;;;31.16;49.46;98609.56;5061450;28;20032;-62
2023/07/26 06:25:20;;;;;;;13.52;8.75;;;;;;;31.27;49.65;98613.59;5063522;28;20055;-62
2023/07/26 06:27:45;;;;;;;10.63;8.43;;;;;;;31.57;48.89;98619.16;5061541;28;20037;-63
2023/07/26 06:30:13;;;;;;;12.20;8.35;;;;;;;31.78;47.73;98617.31;5061607;28;20037;-63
2023/07/26 06:32:39;;;;;;;14.68;9.15;;;;;;;31.99;47.96;98618.19;5060118;28;20098;-62
2023/07/26 06:35:04;;;;;;;12.18;9.68;;;;;;;32.21;46.86;98617.09;5058677;28;20041;-63
2023/07/26 06:37:30;;;;;;;13.40;8.45;;;;;;;32.42;45.96;98608.16;5059969;28;20033;-63
2023/07/26 06:39:55;;;;;;;11.88;8.13;;;;;;;32.63;45.20;98615.22;5061183;28;20043;-63
2023/07/26 06:42:21;;;;;;;13.80;8.73;;;;;;;32.55;45.42;98610.63;5060199;28;21677;-63
2023/07/26 06:44:46;;;;;;;12.70;9.18;;;;;;;32.70;44.77;98592.78;5060994;28;20037;-63
2023/07/26 06:47:11;;;;;;;15.10;8.82;;;;;;;32.79;44.36;98587.25;5060486;28;20257;-63
2023/07/26 06:49:37;;;;;;;12.90;8.15;;;;;;;33.00;44.94;98572.34;5060596;28;20043;-63
2023/07/26 06:52:03;;;;;;;14.68;8.77;;;;;;;32.93;44.11;98569.34;5060352;28;20242;-63
2023/07/26 06:54:30;;;;;;;15.18;9.10;;;;;;;33.07;44.06;98558.09;5060272;28;20040;-63
2023/07/26 06:56:55;;;;;;;12.73;7.93;;;;;;;33.00;43.34;98555.91;5059967;28;20267;-63
2023/07/26 06:59:21;;;;;;;11.65;8.23;;;;;;;33.08;43.34;98551.47;5061314;28;20074;-63
2023/07/26 07:01:46;;;;;;;11.05;8.10;;;;;;;32.91;43.89;98546.16;5060692;28;20049;-62
2023/07/26 07:04:12;;;;;;;11.05;9.30;;;;;;;32.89;44.23;98551.19;5060622;28;20490;-63
2023/07/26 07:06:37;;;;;;;15.57;9.07;;;;;;;32.93;44.35;98547.44;5059856;28;20041;-63
2023/07/26 07:09:04;;;;;;;12.93;9.07;;;;;;;32.69;44.67;98555.53;5059709;28;20082;-62
2023/07/26 07:11:29;;;;;;;13.25;8.55;;;;;;;32.97;44.47;98542.88;5061308;28;20106;-63
2023/07/26 07:13:56;;;;;;;11.50;8.23;;;;;;;33.26;43.68;98543.84;5059076;28;20258;-63
2023/07/26 07:16:22;;;;;;;10.55;8.38;;;;;;;33.20;43.86;98536.97;5060213;28;20044;-63
2023/07/26 07:18:48;;;;;;;13.43;8.68;;;;;;;32.99;45.56;98526.06;5059791;28;20032;-63
2023/07/26 07:21:14;;;;;;;12.85;8.77;;;;;;;32.91;44.99;98529.72;5060010;28;20061;-63
2023/07/26 07:23:39;;;;;;;11.20;9.13;;;;;;;33.22;44.71;98529.19;5059453;28;20095;-63
2023/07/26 07:26:05;;;;;;;12.38;8.93;;;;;;;33.05;44.53;98540.38;5059317;28;20386;-63
2023/07/26 07:28:30;;;;;;;11.60;8.77;;;;;;;32.75;46.28;98537.75;5059308;28;20029;-62
2023/07/26 07:30:56;;;;;;;12.85;9.63;;;;;;;32.75;46.02;98540.47;5059118;28;20306;-63
2023/07/26 07:33:21;;;;;;;11.77;9.30;;;;;;;32.65;45.54;98551.88;5059414;28;20059;-63
2023/07/26 07:35:47;;;;;;;14.00;9.32;;;;;;;32.91;46.06;98533.25;5059643;28;20043;-62
2023/07/26 07:38:12;;;;;;;15.70;9.85;;;;;;;32.84;44.95;98535.75;5059466;28;20249;-63
2023/07/26 07:40:38;;;;;;;12.98;9.18;;;;;;;32.98;44.70;98527.22;5059672;28;20070;-63
2023/07/26 07:43:03;;;;;;;14.23;9.50;;;;;;;33.18;44.61;98528.28;5058921;28;20029;-64
2023/07/26 07:45:29;;;;;;;11.57;8.82;;;;;;;33.64;43.17;98527.91;5059376;28;20052;-62
2023/07/26 07:47:54;;;;;;;12.35;9.05;;;;;;;33.52;44.24;98524.38;5059453;28;20048;-63
2023/07/26 07:50:19;;;;;;;14.45;9.00;;;;;;;33.12;44.90;98521.41;5059755;28;20516;-63
2023/07/26 07:52:45;;;;;;;12.30;9.07;;;;;;;32.92;44.00;98515.66;5059449;28;20037;-62
2023/07/26 07:55:10;;;;;;;12.63;8.65;;;;;;;33.40;43.75;98513.38;5059380;28;20049;-63
2023/07/26 07:57:36;;;;;;;12.32;8.23;;;;;;;33.59;42.77;98514.41;5058632;28;20102;-63
2023/07/26 08:00:02;;;;;;;12.93;8.65;;;;;;;33.89;42.10;98512.25;5059426;28;20276;-63
2023/07/26 08:02:27;;;;;;;12.85;8.77;;;;;;;33.84;42.07;98506.19;5058603;28;20341;-63
2023/07/26 08:04:52;;;;;;;14.00;9.13;;;;;;;33.83;42.59;98510.88;5058673;28;20108;-63
2023/07/26 08:07:18;;;;;;;14.25;8.82;;;;;;;34.21;41.49;98504.97;5058535;28;20049;-63
2023/07/26 08:09:43;;;;;;;14.43;9.38;;;;;;;33.98;41.55;98512.13;5058320;28;20829;-63
2023/07/26 08:12:09;;;;;;;13.25;9.60;;;;;;;34.13;41.01;98508.66;5058407;28;20060;-63
2023/07/26 08:14:34;;;;;;;12.60;8.93;;;;;;;34.19;40.13;98510.00;5058905;28;20051;-63
2023/07/26 08:17:00;;;;;;;12.85;8.30;;;;;;;34.21;40.84;98513.22;5058707;28;20064;-63
2023/07/26 08:19:25;;;;;;;11.50;8.15;;;;;;;34.62;39.20;98497.53;5058412;28;20350;-63
2023/07/26 08:21:51;;;;;;;12.68;9.30;;;;;;;34.46;42.28;98489.25;5058056;28;20052;-63
2023/07/26 08:24:16;;;;;;;12.20;8.43;;;;;;;34.26;41.38;98490.97;5058124;28;20044;-63
2023/07/26 08:26:42;;;;;;;13.32;8.10;;;;;;;34.05;40.37;98486.81;5057935;28;20043;-63
2023/07/26 08:29:07;;;;;;;12.63;8.80;;;;;;;34.05;41.08;98478.56;5057383;28;20060;-63
2023/07/26 08:31:33;;;;;;;11.70;8.75;;;;;;;34.17;40.76;98476.59;5058062;28;20082;-63
2023/07/26 08:33:58;;;;;;;11.23;9.02;;;;;;;34.30;41.62;98477.34;5058474;28;20221;-63
2023/07/26 08:36:24;;;;;;;11.73;8.80;;;;;;;34.19;43.18;98492.72;5058338;28;20044;-63
2023/07/26 08:38:49;;;;;;;14.23;8.98;;;;;;;34.41;41.41;98481.25;5057789;28;20037;-63
2023/07/26 08:41:15;;;;;;;12.50;8.55;;;;;;;34.65;40.97;98476.78;5058746;28;20040;-63
2023/07/26 08:43:42;;;;;;;11.40;8.73;;;;;;;34.83;40.60;98461.59;5058267;28;20302;-63
2023/07/26 08:46:08;;;;;;;14.07;8.77;;;;;;;34.45;41.45;98460.16;5058326;28;20041;-63
2023/07/26 08:48:34;;;;;;;12.80;9.48;;;;;;;34.08;41.84;98456.69;5058127;28;20226;-64
2023/07/26 08:51:00;;;;;;;12.68;8.55;;;;;;;34.46;41.69;98452.72;5057977;28;20362;-63
2023/07/26 08:53:30;;;;;;;11.05;8.35;;;;;;;34.51;41.38;98447.75;5058124;28;20047;-63
2023/07/26 08:55:55;;;;;;;12.05;8.63;;;;;;;34.84;40.85;98442.00;5057540;28;20051;-63
2023/07/26 08:58:21;;;;;;;11.90;8.82;;;;;;;34.70;40.71;98443.53;5057237;28;20037;-63
2023/07/26 09:00:47;;;;;;;15.48;8.73;;;;;;;34.70;40.54;98444.34;5058190;28;20045;-63
2023/07/26 09:03:13;;;;;;;13.18;8.55;;;;;;;34.56;40.99;98439.25;5057632;28;20050;-63
2023/07/26 09:05:39;;;;;;;13.55;8.57;;;;;;;34.74;40.58;98430.69;5057293;28;20325;-64
2023/07/26 09:08:04;;;;;;;11.63;9.30;;;;;;;34.96;40.55;98430.09;5056967;28;20041;-63
2023/07/26 09:10:31;;;;;;;12.25;8.55;;;;;;;35.34;39.52;98437.72;5057337;28;20041;-63
2023/07/26 09:13:07;;;;;;;12.07;8.63;;;;;;;35.08;39.58;98431.97;5057538;28;20135;-62
2023/07/26 09:15:37;;;;;;;12.93;8.57;;;;;;;35.12;39.20;98428.16;5056905;28;20048;-63
2023/07/26 09:18:06;;;;;;;11.85;8.40;;;;;;;35.08;40.23;98437.47;5057617;28;20029;-63
2023/07/26 09:20:32;;;;;;;13.75;8.77;;;;;;;35.16;38.97;98431.78;5057653;28;20116;-63
2023/07/26 09:23:07;;;;;;;13.35;8.98;;;;;;;34.99;39.33;98417.59;5057735;28;20114;-63
2023/07/26 09:25:34;;;;;;;12.23;9.05;;;;;;;35.40;39.40;98411.56;5057602;28;20037;-63
2023/07/26 09:28:00;;;;;;;14.07;9.07;;;;;;;35.33;38.76;98416.06;5056978;28;20055;-63
2023/07/26 09:30:26;;;;;;;11.68;7.90;;;;;;;35.34;37.88;98417.66;5057519;28;20043;-63
2023/07/26 09:32:51;;;;;;;12.43;8.35;;;;;;;35.25;38.55;98428.03;5057147;28;20032;-63
2023/07/26 09:35:17;;;;;;;14.63;8.55;;;;;;;34.98;38.40;98416.78;5057300;28;20067;-64
2023/07/26 09:37:43;;;;;;;11.82;8.43;;;;;;;35.01;37.47;98421.59;5057272;28;20127;-63
2023/07/26 09:40:09;;;;;;;19.08;8.25;;;;;;;35.02;38.15;98416.88;5057181;28;20033;-63
2023/07/26 09:42:45;;;;;;;10.68;7.82;;;;;;;34.86;37.74;98416.88;5057022;28;20051;-63
2023/07/26 09:45:30;;;;;;;14.38;8.18;;;;;;;34.58;37.79;98414.16;5058059;28;20112;-62
2023/07/26 09:48:07;;;;;;;10.73;7.60;;;;;;;34.73;38.35;98413.38;5058125;28;20319;-63
2023/07/26 09:50:33;;;;;;;11.80;7.13;;;;;;;34.85;37.76;98407.03;5056990;28;20348;-62
2023/07/26 09:53:00;;;;;;;14.82;8.07;;;;;;;34.93;38.91;98411.56;5056807;28;20033;-64
2023/07/26 09:55:27;;;;;;;17.10;8.50;;;;;;;34.80;37.11;98408.06;5056391;28;20041;-62
2023/07/26 09:57:54;;;;;;;12.10;8.27;;;;;;;34.76;37.38;98393.44;5056199;28;20147;-62
2023/07/26 10:00:23;;;;;;;12.90;7.50;;;;;;;34.93;37.66;98392.31;5057051;28;20100;-63
2023/07/26 10:03:03;;;;;;;12.10;7.20;;;;;;;34.83;36.08;98381.84;5056668;28;20099;-63
2023/07/26 10:05:34;;;;;;;10.10;6.88;;;;;;;34.93;36.22;98384.06;5056720;28;20258;-63
2023/07/26 10:08:01;;;;;;;13.48;7.35;;;;;;;34.83;35.54;98373.59;5056309;28;20061;-64
2023/07/26 10:10:28;;;;;;;11.00;7.07;;;;;;;34.86;36.08;98370.13;5057143;28;20037;-63
2023/07/26 10:12:57;;;;;;;12.32;7.00;;;;;;;34.78;36.29;98349.09;5057054;28;20044;-63
2023/07/26 10:15:25;;;;;;;13.02;7.40;;;;;;;34.83;35.70;98352.41;5057284;28;20086;-63
2023/07/26 10:17:52;;;;;;;11.30;7.20;;;;;;;34.96;35.59;98349.53;5056992;28;20305;-64
2023/07/26 10:20:17;;;;;;;14.32;7.40;;;;;;;34.98;35.54;98352.72;5056296;28;20246;-63
2023/07/26 10:22:43;;;;;;;10.25;7.15;;;;;;;35.04;34.90;98357.59;5056933;28;20036;-63
2023/07/26 10:25:09;;;;;;;10.50;6.97;;;;;;;35.03;35.45;98355.22;5058124;28;20202;-64
2023/07/26 10:27:35;;;;;;;10.07;6.38;;;;;;;35.08;33.72;98352.97;5055631;28;20040;-63
2023/07/26 10:30:02;;;;;;;11.02;6.85;;;;;;;35.09;34.12;98345.53;5056190;28;20049;-64
2023/07/26 10:32:27;;;;;;;10.50;6.45;;;;;;;35.07;35.01;98348.63;5055538;28;20092;-63
2023/07/26 10:34:54;;;;;;;10.88;7.25;;;;;;;35.14;33.31;98348.00;5055926;28;20036;-63
2023/07/26 10:37:20;;;;;;;10.68;6.78;;;;;;;35.13;33.97;98341.69;5056161;28;20100;-62
2023/07/26 10:39:45;;;;;;;10.73;6.78;;;;;;;35.14;33.55;98342.50;5056786;28;20049;-63
2023/07/26 10:42:40;;;;;;;9.07;6.80;;;;;;;35.17;33.88;98339.03;5056513;28;20052;-62
2023/07/26 10:45:36;;;;;;;14.07;7.15;;;;;;;35.28;33.76;98337.31;5046197;28;20044;-63
2023/07/26 10:48:02;;;;;;;13.52;7.68;;;;;;;35.43;35.05;98341.25;5058248;28;20048;-63
2023/07/26 10:50:27;;;;;;;11.52;7.35;;;;;;;35.62;34.70;98329.44;5054447;28;20028;-63
2023/07/26 10:52:53;;;;;;;11.95;6.82;;;;;;;35.70;33.50;98331.19;5056217;28;20095;-62
2023/07/26 10:55:22;;;;;;;10.25;7.05;;;;;;;35.72;33.48;98331.63;5063108;28;20371;-63
2023/07/26 10:57:48;;;;;;;12.27;7.13;;;;;;;35.62;32.34;98318.44;5060356;28;20032;-63
2023/07/26 11:00:22;;;;;;;13.27;7.00;;;;;;;35.60;32.66;98312.50;5061261;28;20039;-63
2023/07/26 11:03:00;;;;;;;12.73;6.53;;;;;;;35.64;32.43;98313.34;5061355;28;20095;-63
2023/07/26 11:05:29;;;;;;;11.23;7.72;;;;;;;35.66;31.52;98302.78;5060642;28;20338;-63
2023/07/26 11:08:06;;;;;;;13.30;7.20;;;;;;;35.69;31.48;98293.78;5060978;28;20044;-63
2023/07/26 11:10:33;;;;;;;15.82;7.65;;;;;;;35.67;31.32;98285.09;5059576;28;20349;-63
2023/07/26 11:13:16;;;;;;;12.70;7.40;;;;;;;35.76;31.43;98286.47;5061687;28;20033;-63
2023/07/26 11:15:42;;;;;;;13.43;7.30;;;;;;;35.82;31.65;98287.00;5059812;28;20124;-63
2023/07/26 11:18:09;;;;;;;13.88;7.20;;;;;;;35.83;31.82;98272.88;5060839;28;20025;-63
2023/07/26 11:20:48;;;;;;;11.88;7.00;;;;;;;35.82;31.55;98265.75;5059360;28;20325;-63
2023/07/26 11:23:28;;;;;;;11.85;7.03;;;;;;;35.92;32.99;98260.81;5058148;28;20070;-63